Time;durP1;ratioP1;P1;durP2;ratioP2;P2;SDS_P1;SDS_P2;PMS_P1;PMS_P2;Temp;Humidity;BMP_temperature;BMP_pressure;BME280_temperature;BME280_humidity;BME280_pressure;Samples;Min_cycle;Max_cycle;Signal;HPM_P1;HPM_P2
2022/12/08 06:05:35;;;;;;;61.13;24.08;;;0.30;99.90;;;;;;7582540;19;20599;-73
2022/12/08 06:08:08;;;;;;;71.18;28.77;;;0.20;99.90;;;;;;7578626;19;20010;-73
2022/12/08 06:10:42;;;;;;;57.67;24.75;;;0.30;99.90;;;;;;7571066;19;20018;-73
2022/12/08 06:13:14;;;;;;;59.83;26.38;;;0.30;99.90;;;;;;7572994;19;20129;-71
2022/12/08 06:15:46;;;;;;;56.85;24.73;;;0.40;99.90;;;;;;7608917;19;20021;-72
2022/12/08 06:18:18;;;;;;;61.83;25.52;;;0.50;99.90;;;;;;7593183;19;20022;-71
2022/12/08 06:20:50;;;;;;;53.42;23.13;;;0.60;99.90;;;;;;7579817;19;20021;-72
2022/12/08 06:23:22;;;;;;;56.10;23.80;;;0.60;99.90;;;;;;7592917;19;20674;-72
2022/12/08 06:25:54;;;;;;;47.17;20.77;;;0.60;99.90;;;;;;7581505;19;20498;-71
2022/12/08 06:28:28;;;;;;;67.38;24.45;;;0.70;99.90;;;;;;7592681;19;20553;-71
2022/12/08 06:31:13;;;;;;;52.35;23.13;;;0.70;99.90;;;;;;7583092;19;20025;-72
2022/12/08 06:33:46;;;;;;;57.83;24.15;;;0.80;99.90;;;;;;7580426;19;20037;-71
2022/12/08 06:36:21;;;;;;;56.33;22.50;;;0.80;99.90;;;;;;7592361;19;20022;-70
2022/12/08 06:38:54;;;;;;;46.22;20.98;;;0.80;99.90;;;;;;7578268;19;20680;-70
2022/12/08 06:41:26;;;;;;;47.13;21.77;;;0.80;99.90;;;;;;7579142;19;20145;-70
2022/12/08 06:43:58;;;;;;;58.50;23.90;;;0.90;99.90;;;;;;7592681;19;20553;-70
2022/12/08 06:46:30;;;;;;;60.85;25.08;;;0.80;99.90;;;;;;7615703;19;20013;-70
2022/12/08 06:49:02;;;;;;;53.75;23.30;;;0.80;99.90;;;;;;7607427;19;20030;-70
2022/12/08 06:51:35;;;;;;;42.97;20.70;;;0.80;99.90;;;;;;7626326;19;20029;-70
2022/12/08 06:54:07;;;;;;;53.50;22.35;;;0.90;99.90;;;;;;7613571;19;20022;-70
2022/12/08 06:56:39;;;;;;;48.78;21.80;;;0.90;99.90;;;;;;7601103;19;20409;-71
2022/12/08 06:59:11;;;;;;;54.95;23.85;;;0.90;99.90;;;;;;7612468;19;20015;-71
2022/12/08 07:01:45;;;;;;;48.17;22.40;;;0.90;99.90;;;;;;7614673;19;20014;-71
2022/12/08 07:04:18;;;;;;;48.70;21.30;;;0.80;99.90;;;;;;7595175;19;20562;-70
2022/12/08 07:06:50;;;;;;;54.60;24.57;;;0.80;99.90;;;;;;7608449;19;20026;-70
2022/12/08 07:09:22;;;;;;;55.97;25.08;;;0.80;99.90;;;;;;7615356;19;20033;-68
2022/12/08 07:11:55;;;;;;;44.13;21.73;;;0.80;99.90;;;;;;7607510;19;20972;-68
2022/12/08 07:14:27;;;;;;;48.50;20.55;;;0.80;99.90;;;;;;7612413;19;20049;-68
2022/12/08 07:16:59;;;;;;;51.75;22.00;;;0.80;99.90;;;;;;7572290;19;20022;-68
2022/12/08 07:19:31;;;;;;;42.20;19.55;;;0.80;99.90;;;;;;7562811;19;20615;-68
2022/12/08 07:22:03;;;;;;;48.63;21.50;;;0.80;99.90;;;;;;7586976;19;20494;-68
2022/12/08 07:24:35;;;;;;;48.28;21.67;;;1.00;99.90;;;;;;7584651;19;20657;-68
2022/12/08 07:27:08;;;;;;;38.00;17.95;;;0.90;99.90;;;;;;7593200;19;20017;-67
2022/12/08 07:29:40;;;;;;;45.53;20.17;;;1.00;99.90;;;;;;7582749;19;20025;-67
2022/12/08 14:57:53;;;;;;;48.55;23.15;;;3.20;99.90;;;;;;7479433;19;2971259;-73
2022/12/08 15:00:26;;;;;;;47.88;22.17;;;3.20;99.90;;;;;;7626871;19;25013;-73
2022/12/08 15:03:05;;;;;;;51.77;23.20;;;3.20;99.90;;;;;;7641443;19;20113;-72
2022/12/08 15:05:38;;;;;;;52.35;24.30;;;3.20;99.90;;;;;;7632782;19;20070;-73
2022/12/08 15:08:11;;;;;;;51.03;24.07;;;3.20;99.90;;;;;;7629468;19;20010;-73
2022/12/08 15:10:47;;;;;;;44.15;22.10;;;3.20;99.90;;;;;;7629286;19;20038;-73
2022/12/08 15:13:21;;;;;;;47.50;22.83;;;3.20;99.90;;;;;;7630799;19;20014;-72
2022/12/08 15:15:56;;;;;;;42.35;21.85;;;3.20;99.90;;;;;;7613002;19;20607;-73
2022/12/08 15:18:39;;;;;;;42.33;21.13;;;3.20;99.90;;;;;;7591051;19;20057;-73
2022/12/08 15:21:11;;;;;;;45.33;22.37;;;3.20;99.90;;;;;;7617843;19;20018;-72
2022/12/08 15:23:48;;;;;;;46.58;22.40;;;3.20;99.90;;;;;;7604962;19;21062;-73
2022/12/08 15:26:23;;;;;;;46.10;21.95;;;3.10;99.90;;;;;;7588968;19;20025;-75
2022/12/08 15:28:55;;;;;;;53.97;22.38;;;3.10;99.90;;;;;;7614004;19;20052;-73
2022/12/08 15:31:27;;;;;;;43.90;23.45;;;3.10;99.90;;;;;;7621089;19;20022;-73
2022/12/08 15:34:00;;;;;;;44.08;22.45;;;3.00;99.90;;;;;;7612790;19;20351;-73
2022/12/08 15:36:32;;;;;;;43.03;21.92;;;2.90;99.90;;;;;;7627451;19;20081;-73
2022/12/08 15:39:12;;;;;;;47.15;23.05;;;2.70;99.90;;;;;;7631018;19;21390;-73
2022/12/08 15:41:44;;;;;;;44.67;22.08;;;2.70;99.90;;;;;;7619526;19;20522;-75
2022/12/08 15:44:16;;;;;;;44.97;22.80;;;2.70;99.90;;;;;;7634659;19;21055;-72
2022/12/08 15:46:49;;;;;;;46.45;22.55;;;2.60;99.90;;;;;;7637629;19;20632;-73
2022/12/08 15:49:23;;;;;;;50.70;22.60;;;2.60;99.90;;;;;;7609828;19;20014;-73
2022/12/08 15:51:55;;;;;;;52.38;22.35;;;2.50;99.90;;;;;;7620742;19;20036;-71
2022/12/08 15:54:42;;;;;;;44.25;21.73;;;2.50;99.90;;;;;;7617908;19;20555;-73
2022/12/08 15:57:28;;;;;;;46.10;21.60;;;2.40;99.90;;;;;;7594837;19;20019;-72
2022/12/08 16:00:20;;;;;;;47.70;20.95;;;2.30;99.90;;;;;;7614475;19;21548;-73
2022/12/08 16:03:24;;;;;;;46.50;22.70;;;2.20;99.90;;;;;;7608640;19;20018;-73
2022/12/08 16:06:19;;;;;;;42.28;20.88;;;2.10;99.90;;;;;;7637286;19;20018;-73
2022/12/08 16:09:27;;;;;;;41.42;21.10;;;2.00;99.90;;;;;;7599631;19;20011;-73
2022/12/08 16:14:50;;;;;;;47.95;23.63;;;2.00;99.90;;;;;;7609764;19;20439;-74
2022/12/08 16:17:42;;;;;;;48.63;23.10;;;1.90;99.90;;;;;;7600679;19;20007;-72
2022/12/08 16:20:16;;;;;;;48.80;22.75;;;1.90;99.90;;;;;;7600762;19;20564;-74
2022/12/08 16:22:49;;;;;;;46.28;21.70;;;1.90;99.90;;;;;;7608335;19;20025;-73
2022/12/08 16:25:39;;;;;;;50.22;22.95;;;1.80;99.90;;;;;;7597473;19;20018;-73
2022/12/08 16:28:31;;;;;;;49.83;23.20;;;1.70;99.90;;;;;;7601623;19;20017;-73
2022/12/08 16:31:23;;;;;;;53.67;24.50;;;1.70;99.90;;;;;;7595071;19;20011;-75
2022/12/08 16:33:55;;;;;;;52.13;23.27;;;1.60;99.90;;;;;;7591399;19;20022;-75
2022/12/08 16:36:27;;;;;;;54.28;23.50;;;1.60;99.90;;;;;;7576961;19;20015;-75
2022/12/08 16:39:00;;;;;;;52.20;23.60;;;1.50;99.90;;;;;;7558987;19;20653;-75
2022/12/08 16:44:23;;;;;;;47.50;22.67;;;1.50;99.90;;;;;;7585024;19;20014;-73
2022/12/08 16:46:55;;;;;;;46.38;22.58;;;1.50;99.90;;;;;;7574837;19;20010;-73
2022/12/08 16:49:27;;;;;;;48.70;23.02;;;1.50;99.90;;;;;;7574070;19;20010;-73
2022/12/08 16:51:59;;;;;;;57.97;24.35;;;1.50;99.90;;;;;;7573545;19;21172;-73
2022/12/08 16:54:32;;;;;;;51.25;24.25;;;1.40;99.90;;;;;;7580276;19;20010;-75
2022/12/08 16:57:04;;;;;;;61.10;24.80;;;1.30;99.90;;;;;;7594966;19;20575;-75
2022/12/08 16:59:37;;;;;;;56.50;25.40;;;1.30;99.90;;;;;;7592127;19;20050;-74
2022/12/08 17:02:09;;;;;;;52.40;24.65;;;1.20;99.90;;;;;;7581509;19;20007;-75
2022/12/08 17:04:47;;;;;;;60.20;26.45;;;1.20;99.90;;;;;;7585325;19;21744;-75
2022/12/08 17:07:19;;;;;;;60.42;26.23;;;1.10;99.90;;;;;;7594744;19;23531;-75
2022/12/08 17:09:52;;;;;;;52.55;24.88;;;0.90;99.90;;;;;;7596462;19;20719;-75
2022/12/08 17:12:24;;;;;;;57.70;25.67;;;0.80;99.90;;;;;;7573808;19;20026;-75
2022/12/08 17:14:56;;;;;;;45.17;23.15;;;0.80;99.90;;;;;;7568977;19;20025;-76
2022/12/08 17:17:29;;;;;;;51.17;23.67;;;0.80;99.90;;;;;;7557404;19;20025;-75
2022/12/08 17:20:03;;;;;;;62.03;24.67;;;0.80;99.90;;;;;;7573804;19;20021;-73
2022/12/08 17:22:37;;;;;;;54.20;25.38;;;0.80;99.90;;;;;;7564438;19;20610;-74
2022/12/08 17:25:09;;;;;;;68.03;29.70;;;0.80;99.90;;;;;;7554642;19;20014;-73
2022/12/08 17:27:42;;;;;;;52.67;25.92;;;0.70;99.90;;;;;;7557140;19;20129;-73
2022/12/08 17:30:16;;;;;;;64.35;27.90;;;0.60;99.90;;;;;;7565067;19;20022;-73
2022/12/08 17:32:49;;;;;;;56.72;25.80;;;0.50;99.90;;;;;;7588560;19;20019;-73
2022/12/08 17:35:21;;;;;;;54.65;26.40;;;0.50;99.90;;;;;;7598618;19;20037;-72
2022/12/08 17:37:53;;;;;;;53.07;25.03;;;0.50;99.90;;;;;;7604008;19;20021;-73
2022/12/08 17:40:25;;;;;;;60.80;28.92;;;0.50;99.90;;;;;;7585072;19;20046;-73
2022/12/08 17:42:59;;;;;;;;;;;0.50;99.90;;;;;;7567325;19;20021;-73
2022/12/08 17:45:31;;;;;;;64.95;29.30;;;0.50;99.90;;;;;;7556715;19;19914;-74
2022/12/08 17:48:04;;;;;;;60.00;27.57;;;0.50;99.90;;;;;;7591686;19;20015;-73
2022/12/08 17:50:41;;;;;;;68.63;30.55;;;0.50;99.90;;;;;;7590064;19;20502;-74
2022/12/08 17:53:13;;;;;;;64.22;30.88;;;0.50;99.90;;;;;;7577146;19;20021;-74
2022/12/08 17:55:54;;;;;;;68.05;30.15;;;0.40;99.90;;;;;;7570608;19;20644;-73
2022/12/08 17:58:26;;;;;;;69.03;33.50;;;0.30;99.90;;;;;;7560140;19;20568;-73
2022/12/08 18:00:58;;;;;;;82.15;36.42;;;0.30;99.90;;;;;;7562331;19;20011;-73
2022/12/08 18:03:31;;;;;;;79.22;35.83;;;0.20;99.90;;;;;;7588246;19;20634;-73
2022/12/08 18:06:11;;;;;;;89.82;42.58;;;0.20;99.90;;;;;;7572838;19;20022;-72
2022/12/08 18:08:43;;;;;;;94.97;43.80;;;0.20;99.90;;;;;;7560044;19;20021;-74
2022/12/08 18:11:18;;;;;;;84.20;41.43;;;0.10;99.90;;;;;;7560010;19;20427;-74
2022/12/08 18:13:51;;;;;;;82.78;36.00;;;0.20;99.90;;;;;;7559855;19;20887;-74
2022/12/08 18:16:26;;;;;;;80.05;36.90;;;0.30;99.90;;;;;;6562246;19;10000364;-72
2022/12/08 18:18:58;;;;;;;79.18;34.45;;;0.20;99.90;;;;;;7567051;19;21026;-74
2022/12/08 18:21:30;;;;;;;106.78;46.45;;;0.30;99.90;;;;;;7555006;19;20014;-73
2022/12/08 18:24:04;;;;;;;85.43;41.60;;;0.20;99.90;;;;;;7566471;19;20626;-73
2022/12/08 18:26:36;;;;;;;74.80;35.55;;;0.10;99.90;;;;;;7583490;19;20104;-73
2022/12/08 18:29:08;;;;;;;64.25;32.58;;;0.00;99.90;;;;;;7586146;19;20036;-72
2022/12/08 18:31:40;;;;;;;71.93;32.22;;;0.10;99.90;;;;;;7561813;19;20040;-73
2022/12/08 18:34:12;;;;;;;61.97;30.95;;;0.20;99.90;;;;;;7549370;19;20025;-72
2022/12/08 18:36:44;;;;;;;65.43;30.02;;;0.10;99.90;;;;;;7576989;19;20013;-74
2022/12/08 18:39:20;;;;;;;67.60;32.42;;;0.20;99.90;;;;;;7552611;19;20022;-73
2022/12/08 18:41:55;;;;;;;82.80;38.88;;;0.10;99.90;;;;;;7569763;19;20480;-73
2022/12/08 18:44:27;;;;;;;91.93;42.08;;;0.10;99.90;;;;;;7555918;19;20014;-73
2022/12/08 18:46:59;;;;;;;75.55;35.47;;;0.00;99.90;;;;;;7564346;19;20024;-73
2022/12/08 18:49:32;;;;;;;80.85;38.33;;;0.00;99.90;;;;;;7565214;19;20018;-73
2022/12/08 18:52:04;;;;;;;74.84;34.84;;;0.00;99.90;;;;;;5045327;19;10000512;-73
2022/12/08 18:54:37;;;;;;;87.57;41.65;;;-0.10;99.90;;;;;;7557623;19;20019;-73
2022/12/08 18:57:29;;;;;;;92.22;44.45;;;0.00;99.90;;;;;;7556391;19;20931;-73
2022/12/08 19:00:04;;;;;;;89.03;42.22;;;-0.10;99.90;;;;;;7560150;19;20017;-74
2022/12/08 19:02:38;;;;;;;89.93;44.95;;;-0.10;99.90;;;;;;7554298;19;20019;-73
2022/12/08 19:05:11;;;;;;;;;;;0.00;99.90;;;;;;7565414;19;20055;-74
2022/12/08 19:07:44;;;;;;;115.47;53.42;;;0.00;99.90;;;;;;7546138;19;20033;-73
2022/12/08 19:10:16;;;;;;;91.57;45.92;;;0.00;99.90;;;;;;7556112;19;20021;-74
2022/12/08 19:12:50;;;;;;;114.70;53.45;;;0.00;99.90;;;;;;7526877;19;20105;-74
2022/12/08 19:15:23;;;;;;;107.30;51.75;;;-0.10;99.90;;;;;;7561438;19;20366;-73
2022/12/08 19:17:55;;;;;;;111.47;54.55;;;-0.10;99.90;;;;;;7581073;19;20621;-74
2022/12/08 19:20:27;;;;;;;106.22;52.75;;;-0.20;99.90;;;;;;7583303;19;20458;-74
2022/12/08 19:23:00;;;;;;;115.45;57.42;;;-0.30;99.90;;;;;;7546338;19;20018;-75
2022/12/08 19:25:32;;;;;;;110.55;55.08;;;-0.30;99.90;;;;;;7556394;19;20078;-74
2022/12/08 19:28:04;;;;;;;111.30;54.97;;;-0.30;99.90;;;;;;7577865;19;20019;-73
2022/12/08 19:30:36;;;;;;;109.05;54.83;;;-0.30;99.90;;;;;;7572203;19;20530;-74
2022/12/08 19:33:08;;;;;;;109.68;54.97;;;-0.40;99.90;;;;;;7555564;19;20010;-75
2022/12/08 19:35:41;;;;;;;109.15;54.28;;;-0.30;99.90;;;;;;7566051;19;20019;-75
2022/12/08 19:38:22;;;;;;;109.57;54.13;;;-0.30;99.90;;;;;;7583448;19;20050;-76
2022/12/08 19:46:35;;;;;;;106.13;52.50;;;-0.30;99.90;;;;;;7583870;19;20043;-74
2022/12/08 19:49:12;;;;;;;105.63;51.75;;;-0.30;99.90;;;;;;7547997;19;20052;-74
2022/12/08 19:51:44;;;;;;;110.20;52.25;;;-0.30;99.90;;;;;;7567355;19;20011;-74
2022/12/08 19:54:16;;;;;;;111.45;54.90;;;-0.30;99.90;;;;;;7561637;19;20047;-74
2022/12/08 19:56:48;;;;;;;118.88;58.10;;;-0.30;99.90;;;;;;7556248;19;21054;-73
2022/12/08 19:59:21;;;;;;;115.63;56.17;;;-0.30;99.90;;;;;;7562831;19;20015;-74
2022/12/08 20:01:54;;;;;;;125.60;62.05;;;-0.40;99.90;;;;;;7556446;19;20006;-74
2022/12/08 20:04:27;;;;;;;;;;;-0.30;99.90;;;;;;7570004;19;21049;-74
2022/12/08 20:06:59;;;;;;;111.28;55.63;;;-0.30;99.90;;;;;;7592988;19;19980;-74
2022/12/08 20:09:31;;;;;;;111.40;54.95;;;-0.30;99.90;;;;;;7584455;19;20014;-76
2022/12/08 20:12:04;;;;;;;114.97;55.90;;;-0.30;99.90;;;;;;7576990;19;20018;-78
2022/12/08 20:14:36;;;;;;;114.72;54.80;;;-0.40;99.90;;;;;;7575009;19;20022;-74
2022/12/08 20:17:17;;;;;;;114.57;55.92;;;-0.40;99.90;;;;;;7568402;19;20014;-75
2022/12/08 20:19:49;;;;;;;105.20;56.00;;;-0.50;99.90;;;;;;7552770;19;21312;-76
2022/12/08 20:22:21;;;;;;;111.53;56.03;;;-0.40;99.90;;;;;;7565296;19;20070;-77
2022/12/08 20:24:53;;;;;;;120.80;62.15;;;-0.50;99.90;;;;;;7576995;19;20022;-76
2022/12/08 20:27:32;;;;;;;107.57;55.72;;;-0.50;99.90;;;;;;7572057;19;20086;-77
2022/12/08 20:30:05;;;;;;;110.43;55.58;;;-0.50;99.90;;;;;;7561577;19;20093;-75
2022/12/08 20:32:44;;;;;;;101.15;53.90;;;-0.50;99.90;;;;;;7582674;19;20094;-78
2022/12/08 20:35:16;;;;;;;;;;;-0.50;99.90;;;;;;7591796;19;20018;-74
2022/12/08 20:37:48;;;;;;;98.85;48.42;;;-0.60;99.90;;;;;;7584012;19;20327;-76
2022/12/08 20:40:20;;;;;;;93.28;48.47;;;-0.70;99.90;;;;;;7594967;19;20202;-75
2022/12/08 20:42:52;;;;;;;91.78;45.80;;;-0.70;99.90;;;;;;7591436;19;20021;-76
2022/12/08 20:45:24;;;;;;;87.60;45.13;;;-0.70;99.90;;;;;;7558470;19;20011;-76
2022/12/08 20:47:56;;;;;;;82.68;43.10;;;-0.70;99.90;;;;;;7539727;19;20977;-75
2022/12/08 20:50:28;;;;;;;93.50;45.08;;;-0.70;99.90;;;;;;7583786;19;20487;-76
2022/12/08 20:53:00;;;;;;;88.28;43.75;;;-0.70;99.90;;;;;;7590113;19;20019;-76
2022/12/08 20:55:34;;;;;;;83.18;41.40;;;-0.80;99.90;;;;;;7584388;19;20444;-75
2022/12/08 20:58:06;;;;;;;81.82;41.40;;;-0.80;99.90;;;;;;7582749;19;21056;-77
2022/12/08 21:00:38;;;;;;;88.40;41.97;;;-0.80;99.90;;;;;;7575405;19;20017;-77
2022/12/08 21:03:12;;;;;;;86.40;40.03;;;-0.70;99.90;;;;;;7584466;19;20694;-77
2022/12/08 21:05:51;;;;;;;82.22;43.67;;;-0.80;99.90;;;;;;7583566;19;20018;-77
2022/12/08 21:08:24;;;;;;;98.60;45.70;;;-0.90;99.90;;;;;;7583081;19;20448;-77
2022/12/08 21:10:57;;;;;;;80.85;41.97;;;-1.00;99.90;;;;;;7590494;19;20875;-74
2022/12/08 21:13:29;;;;;;;91.82;43.65;;;-1.00;99.90;;;;;;7577938;19;20015;-75
2022/12/08 21:16:01;;;;;;;104.22;49.50;;;-1.00;99.90;;;;;;7562402;19;20014;-79
